sensor_id;sensor_type;location;lat;lon;timestamp;pressure;altitude;pressure_sealevel;temperature;humidity
73171;BME280;61381;50.118;19.962;2023-04-21T00:00:39;98651.81;;;9.01;100.00
73171;BME280;61381;50.118;19.962;2023-04-21T00:05:54;98640.09;;;8.82;100.00
73171;BME280;61381;50.118;19.962;2023-04-21T00:10:55;98647.03;;;8.57;100.00
73171;BME280;61381;50.118;19.962;2023-04-21T00:15:57;98645.16;;;8.83;100.00
73171;BME280;61381;50.118;19.962;2023-04-21T00:20:58;98633.66;;;9.08;100.00
73171;BME280;61381;50.118;19.962;2023-04-21T00:26:00;98625.91;;;9.07;100.00
73171;BME280;61381;50.118;19.962;2023-04-21T00:31:02;98628.03;;;9.05;100.00
73171;BME280;61381;50.118;19.962;2023-04-21T00:36:04;98622.41;;;9.06;100.00
73171;BME280;61381;50.118;19.962;2023-04-21T00:41:05;98626.41;;;9.09;100.00
73171;BME280;61381;50.118;19.962;2023-04-21T00:46:07;98626.13;;;9.16;100.00
73171;BME280;61381;50.118;19.962;2023-04-21T00:51:08;98622.94;;;9.14;100.00
73171;BME280;61381;50.118;19.962;2023-04-21T00:56:09;98612.81;;;9.05;100.00
73171;BME280;61381;50.118;19.962;2023-04-21T01:01:13;98614.19;;;8.82;100.00
73171;BME280;61381;50.118;19.962;2023-04-21T01:06:14;98613.94;;;8.68;100.00
73171;BME280;61381;50.118;19.962;2023-04-21T01:11:15;98616.84;;;8.77;100.00
73171;BME280;61381;50.118;19.962;2023-04-21T01:16:17;98624.28;;;9.11;100.00
73171;BME280;61381;50.118;19.962;2023-04-21T01:21:18;98626.13;;;9.21;100.00
73171;BME280;61381;50.118;19.962;2023-04-21T01:26:21;98625.31;;;9.20;100.00
73171;BME280;61381;50.118;19.962;2023-04-21T01:31:22;98618.75;;;8.71;100.00
73171;BME280;61381;50.118;19.962;2023-04-21T01:36:23;98624.56;;;8.32;100.00
73171;BME280;61381;50.118;19.962;2023-04-21T01:41:25;98622.41;;;8.14;100.00
73171;BME280;61381;50.118;19.962;2023-04-21T01:46:26;98610.13;;;8.08;100.00
73171;BME280;61381;50.118;19.962;2023-04-21T01:51:27;98608.00;;;8.04;100.00
73171;BME280;61381;50.118;19.962;2023-04-21T01:56:29;98606.66;;;8.02;100.00
73171;BME280;61381;50.118;19.962;2023-04-21T02:01:30;98610.38;;;7.91;100.00
73171;BME280;61381;50.118;19.962;2023-04-21T02:06:31;98617.06;;;8.03;100.00
73171;BME280;61381;50.118;19.962;2023-04-21T02:11:34;98614.97;;;8.42;100.00
73171;BME280;61381;50.118;19.962;2023-04-21T02:16:35;98612.63;;;8.61;100.00
73171;BME280;61381;50.118;19.962;2023-04-21T02:21:36;98619.00;;;8.54;100.00
73171;BME280;61381;50.118;19.962;2023-04-21T02:26:38;98613.34;;;8.40;100.00
73171;BME280;61381;50.118;19.962;2023-04-21T02:31:39;98616.56;;;8.27;100.00
73171;BME280;61381;50.118;19.962;2023-04-21T02:36:40;98625.63;;;8.26;100.00
73171;BME280;61381;50.118;19.962;2023-04-21T02:41:43;98613.06;;;8.06;100.00
73171;BME280;61381;50.118;19.962;2023-04-21T02:46:44;98618.00;;;7.51;100.00
73171;BME280;61381;50.118;19.962;2023-04-21T02:51:45;98613.06;;;7.22;100.00
73171;BME280;61381;50.118;19.962;2023-04-21T02:56:47;98612.63;;;6.93;100.00
73171;BME280;61381;50.118;19.962;2023-04-21T03:01:48;98613.53;;;6.66;100.00
73171;BME280;61381;50.118;19.962;2023-04-21T03:06:49;98603.63;;;6.29;100.00
73171;BME280;61381;50.118;19.962;2023-04-21T03:11:52;98599.00;;;6.14;100.00
73171;BME280;61381;50.118;19.962;2023-04-21T03:16:53;98603.75;;;6.12;100.00
73171;BME280;61381;50.118;19.962;2023-04-21T03:21:54;98608.44;;;6.00;100.00
73171;BME280;61381;50.118;19.962;2023-04-21T03:26:56;98601.88;;;5.85;100.00
73171;BME280;61381;50.118;19.962;2023-04-21T03:31:57;98610.00;;;5.74;100.00
73171;BME280;61381;50.118;19.962;2023-04-21T03:36:58;98601.84;;;5.58;100.00
73171;BME280;61381;50.118;19.962;2023-04-21T03:42:00;98608.16;;;5.52;100.00
73171;BME280;61381;50.118;19.962;2023-04-21T03:47:01;98612.19;;;5.54;100.00
73171;BME280;61381;50.118;19.962;2023-04-21T03:52:03;98612.34;;;5.48;100.00
73171;BME280;61381;50.118;19.962;2023-04-21T03:57:05;98606.78;;;5.49;100.00
73171;BME280;61381;50.118;19.962;2023-04-21T04:02:06;98615.63;;;5.55;100.00
73171;BME280;61381;50.118;19.962;2023-04-21T04:07:07;98613.59;;;5.62;100.00
73171;BME280;61381;50.118;19.962;2023-04-21T04:12:10;98618.72;;;5.69;100.00
73171;BME280;61381;50.118;19.962;2023-04-21T04:17:11;98618.00;;;5.79;100.00
73171;BME280;61381;50.118;19.962;2023-04-21T04:22:12;98635.13;;;5.88;100.00
73171;BME280;61381;50.118;19.962;2023-04-21T04:27:14;98643.31;;;6.03;100.00
73171;BME280;61381;50.118;19.962;2023-04-21T04:32:15;98650.97;;;6.27;100.00
73171;BME280;61381;50.118;19.962;2023-04-21T04:37:16;98650.44;;;6.90;100.00
73171;BME280;61381;50.118;19.962;2023-04-21T04:42:19;98662.22;;;9.23;100.00
73171;BME280;61381;50.118;19.962;2023-04-21T04:47:20;98680.41;;;11.40;100.00
73171;BME280;61381;50.118;19.962;2023-04-21T04:52:21;98689.34;;;13.26;97.60
73171;BME280;61381;50.118;19.962;2023-04-21T04:57:23;98700.69;;;14.93;84.59
73171;BME280;61381;50.118;19.962;2023-04-21T05:02:24;98709.38;;;15.44;80.09
73171;BME280;61381;50.118;19.962;2023-04-21T05:07:25;98719.34;;;16.41;74.94
73171;BME280;61381;50.118;19.962;2023-04-21T05:12:28;98720.91;;;17.29;70.04
73171;BME280;61381;50.118;19.962;2023-04-21T05:17:29;98718.59;;;17.96;62.02
73171;BME280;61381;50.118;19.962;2023-04-21T05:22:30;98723.56;;;19.00;59.10
73171;BME280;61381;50.118;19.962;2023-04-21T05:27:32;98730.19;;;19.11;55.36
73171;BME280;61381;50.118;19.962;2023-04-21T05:32:33;98723.25;;;19.72;53.42
73171;BME280;61381;50.118;19.962;2023-04-21T05:37:34;98727.94;;;20.61;50.81
73171;BME280;61381;50.118;19.962;2023-04-21T05:42:37;98724.63;;;20.68;51.09
73171;BME280;61381;50.118;19.962;2023-04-21T05:47:38;98732.09;;;20.18;50.07
73171;BME280;61381;50.118;19.962;2023-04-21T05:52:39;98727.31;;;19.66;51.39
73171;BME280;61381;50.118;19.962;2023-04-21T05:57:41;98720.91;;;19.24;51.88
73171;BME280;61381;50.118;19.962;2023-04-21T06:02:42;98711.13;;;18.35;55.10
73171;BME280;61381;50.118;19.962;2023-04-21T06:07:43;98709.69;;;18.17;51.64
73171;BME280;61381;50.118;19.962;2023-04-21T06:12:46;98708.69;;;16.10;59.42
73171;BME280;61381;50.118;19.962;2023-04-21T06:17:51;98703.78;;;15.31;63.56
73171;BME280;61381;50.118;19.962;2023-04-21T06:22:54;98704.56;;;13.91;68.66
73171;BME280;61381;50.118;19.962;2023-04-21T06:27:56;98696.19;;;13.18;70.74
73171;BME280;61381;50.118;19.962;2023-04-21T06:32:57;98683.41;;;13.43;71.91
73171;BME280;61381;50.118;19.962;2023-04-21T06:37:58;98694.69;;;14.37;66.05
73171;BME280;61381;50.118;19.962;2023-04-21T06:43:01;98694.16;;;14.12;67.01
73171;BME280;61381;50.118;19.962;2023-04-21T06:48:02;98700.66;;;14.48;67.32
73171;BME280;61381;50.118;19.962;2023-04-21T06:53:03;98705.88;;;15.43;63.96
73171;BME280;61381;50.118;19.962;2023-04-21T06:58:05;98699.94;;;15.24;64.13
73171;BME280;61381;50.118;19.962;2023-04-21T07:03:06;98701.19;;;14.72;67.57
73171;BME280;61381;50.118;19.962;2023-04-21T07:08:07;98693.63;;;14.83;66.69
73171;BME280;61381;50.118;19.962;2023-04-21T07:13:10;98714.75;;;16.68;60.43
73171;BME280;61381;50.118;19.962;2023-04-21T07:18:11;98708.63;;;17.32;57.72
73171;BME280;61381;50.118;19.962;2023-04-21T07:23:12;98705.97;;;17.06;58.77
73171;BME280;61381;50.118;19.962;2023-04-21T07:28:14;98707.13;;;16.87;54.96
73171;BME280;61381;50.118;19.962;2023-04-21T07:33:15;98706.50;;;17.46;54.40
73171;BME280;61381;50.118;19.962;2023-04-21T07:38:16;98703.56;;;17.22;54.22
73171;BME280;61381;50.118;19.962;2023-04-21T07:43:19;98696.47;;;16.56;56.43
73171;BME280;61381;50.118;19.962;2023-04-21T07:48:19;98695.00;;;16.76;55.30
73171;BME280;61381;50.118;19.962;2023-04-21T07:53:20;98693.41;;;16.75;56.12
73171;BME280;61381;50.118;19.962;2023-04-21T07:58:23;98697.53;;;16.11;57.13
73171;BME280;61381;50.118;19.962;2023-04-21T08:03:24;98694.28;;;15.83;59.26
73171;BME280;61381;50.118;19.962;2023-04-21T08:08:25;98692.41;;;15.92;61.08
73171;BME280;61381;50.118;19.962;2023-04-21T08:13:27;98696.31;;;16.52;59.47
73171;BME280;61381;50.118;19.962;2023-04-21T08:18:28;98683.56;;;16.44;61.96
73171;BME280;61381;50.118;19.962;2023-04-21T08:23:29;98685.81;;;15.76;60.60
73171;BME280;61381;50.118;19.962;2023-04-21T08:28:32;98679.22;;;15.91;63.85
73171;BME280;61381;50.118;19.962;2023-04-21T08:33:33;98680.81;;;15.92;60.60
73171;BME280;61381;50.118;19.962;2023-04-21T08:38:34;98683.44;;;16.49;58.93
73171;BME280;61381;50.118;19.962;2023-04-21T08:43:36;98687.34;;;16.17;60.29
73171;BME280;61381;50.118;19.962;2023-04-21T08:48:38;98693.41;;;16.75;57.74
73171;BME280;61381;50.118;19.962;2023-04-21T08:53:39;98683.09;;;17.72;56.37
73171;BME280;61381;50.118;19.962;2023-04-21T08:58:42;98682.84;;;17.26;53.21
73171;BME280;61381;50.118;19.962;2023-04-21T09:03:43;98684.47;;;17.18;48.97
73171;BME280;61381;50.118;19.962;2023-04-21T09:08:52;98671.84;;;17.22;53.88
73171;BME280;61381;50.118;19.962;2023-04-21T09:13:56;98672.88;;;17.77;49.95
73171;BME280;61381;50.118;19.962;2023-04-21T09:18:58;98679.84;;;18.17;45.66
73171;BME280;61381;50.118;19.962;2023-04-21T09:24:03;98668.41;;;18.32;48.53
73171;BME280;61381;50.118;19.962;2023-04-21T09:29:06;98673.91;;;18.03;45.12
73171;BME280;61381;50.118;19.962;2023-04-21T09:34:17;98668.59;;;17.38;44.66
73171;BME280;61381;50.118;19.962;2023-04-21T09:39:21;98667.00;;;17.75;47.24
73171;BME280;61381;50.118;19.962;2023-04-21T09:44:24;98676.25;;;17.74;42.86
73171;BME280;61381;50.118;19.962;2023-04-21T09:49:28;98664.91;;;17.81;44.39
73171;BME280;61381;50.118;19.962;2023-04-21T09:54:31;98678.81;;;17.71;39.94
73171;BME280;61381;50.118;19.962;2023-04-21T09:59:35;98661.19;;;17.94;41.40
73171;BME280;61381;50.118;19.962;2023-04-21T10:04:40;98649.09;;;17.83;41.93
73171;BME280;61381;50.118;19.962;2023-04-21T10:09:45;98649.53;;;18.36;40.60
73171;BME280;61381;50.118;19.962;2023-04-21T10:14:51;98638.97;;;18.01;38.43
73171;BME280;61381;50.118;19.962;2023-04-21T10:19:53;98660.59;;;18.31;36.25
73171;BME280;61381;50.118;19.962;2023-04-21T10:24:55;98654.22;;;18.48;40.18
73171;BME280;61381;50.118;19.962;2023-04-21T10:29:58;98649.63;;;17.46;39.61
73171;BME280;61381;50.118;19.962;2023-04-21T10:34:59;98633.53;;;17.03;40.60
73171;BME280;61381;50.118;19.962;2023-04-21T10:40:00;98625.53;;;17.54;39.83
73171;BME280;61381;50.118;19.962;2023-04-21T10:45:08;98635.63;;;18.59;35.52
73171;BME280;61381;50.118;19.962;2023-04-21T10:50:12;98610.91;;;18.72;38.49
73171;BME280;61381;50.118;19.962;2023-04-21T10:55:13;98628.78;;;18.40;37.03
73171;BME280;61381;50.118;19.962;2023-04-21T11:00:17;98629.59;;;17.98;37.93
73171;BME280;61381;50.118;19.962;2023-04-21T11:05:19;98620.91;;;18.26;37.93
73171;BME280;61381;50.118;19.962;2023-04-21T11:10:20;98621.78;;;18.18;37.76
73171;BME280;61381;50.118;19.962;2023-04-21T11:15:23;98618.94;;;17.93;39.52
73171;BME280;61381;50.118;19.962;2023-04-21T11:20:24;98624.94;;;18.75;38.47
73171;BME280;61381;50.118;19.962;2023-04-21T11:25:25;98606.75;;;18.21;37.07
73171;BME280;61381;50.118;19.962;2023-04-21T11:30:33;98608.97;;;17.76;38.58
73171;BME280;61381;50.118;19.962;2023-04-21T11:35:39;98600.88;;;17.97;38.62
73171;BME280;61381;50.118;19.962;2023-04-21T11:40:46;98596.03;;;18.91;37.74
73171;BME280;61381;50.118;19.962;2023-04-21T11:45:49;98575.03;;;19.37;71.62
73171;BME280;61381;50.118;19.962;2023-04-21T11:50:50;98587.69;;;19.58;43.79
73171;BME280;61381;50.118;19.962;2023-04-21T11:55:51;98564.66;;;19.68;39.37
73171;BME280;61381;50.118;19.962;2023-04-21T12:00:54;98589.28;;;18.64;38.08
73171;BME280;61381;50.118;19.962;2023-04-21T12:05:55;98585.44;;;17.68;38.14
73171;BME280;61381;50.118;19.962;2023-04-21T12:10:56;98582.25;;;17.06;39.82
73171;BME280;61381;50.118;19.962;2023-04-21T12:16:01;98569.03;;;17.14;37.24
73171;BME280;61381;50.118;19.962;2023-04-21T12:21:02;98564.72;;;17.93;36.30
73171;BME280;61381;50.118;19.962;2023-04-21T12:26:04;98557.41;;;18.61;34.33
73171;BME280;61381;50.118;19.962;2023-04-21T12:31:06;98560.63;;;18.42;32.68
73171;BME280;61381;50.118;19.962;2023-04-21T12:36:07;98554.59;;;17.81;35.13
73171;BME280;61381;50.118;19.962;2023-04-21T12:41:08;98557.31;;;18.03;33.59
73171;BME280;61381;50.118;19.962;2023-04-21T12:46:11;98551.72;;;18.20;33.17
73171;BME280;61381;50.118;19.962;2023-04-21T12:51:12;98547.44;;;18.65;30.76
73171;BME280;61381;50.118;19.962;2023-04-21T12:56:13;98546.13;;;18.83;30.61
73171;BME280;61381;50.118;19.962;2023-04-21T13:01:15;98530.22;;;19.19;32.90
73171;BME280;61381;50.118;19.962;2023-04-21T13:06:16;98534.75;;;19.15;32.10
73171;BME280;61381;50.118;19.962;2023-04-21T13:11:17;98531.53;;;20.03;34.07
73171;BME280;61381;50.118;19.962;2023-04-21T13:16:20;98527.84;;;19.30;32.69
73171;BME280;61381;50.118;19.962;2023-04-21T13:21:21;98519.47;;;18.06;34.97
73171;BME280;61381;50.118;19.962;2023-04-21T13:26:22;98518.34;;;17.23;33.97
73171;BME280;61381;50.118;19.962;2023-04-21T13:31:24;98520.34;;;17.77;33.07
73171;BME280;61381;50.118;19.962;2023-04-21T13:36:25;98509.84;;;18.30;34.88
73171;BME280;61381;50.118;19.962;2023-04-21T13:41:26;98507.44;;;18.28;34.16
73171;BME280;61381;50.118;19.962;2023-04-21T13:46:29;98503.59;;;18.63;32.88
73171;BME280;61381;50.118;19.962;2023-04-21T13:51:30;98503.22;;;18.52;33.84
73171;BME280;61381;50.118;19.962;2023-04-21T13:56:31;98487.19;;;18.71;32.91
73171;BME280;61381;50.118;19.962;2023-04-21T14:01:33;98492.06;;;18.78;31.98
73171;BME280;61381;50.118;19.962;2023-04-21T14:06:34;98490.13;;;18.66;31.98
73171;BME280;61381;50.118;19.962;2023-04-21T14:11:35;98491.25;;;18.53;30.67
73171;BME280;61381;50.118;19.962;2023-04-21T14:16:38;98481.97;;;18.66;31.33
73171;BME280;61381;50.118;19.962;2023-04-21T14:21:39;98480.31;;;18.99;31.44
73171;BME280;61381;50.118;19.962;2023-04-21T14:26:40;98479.75;;;19.05;31.20
73171;BME280;61381;50.118;19.962;2023-04-21T14:31:42;98473.63;;;19.21;30.26
73171;BME280;61381;50.118;19.962;2023-04-21T14:36:43;98479.03;;;19.33;29.83
73171;BME280;61381;50.118;19.962;2023-04-21T14:41:44;98455.19;;;18.77;31.30
73171;BME280;61381;50.118;19.962;2023-04-21T14:46:47;98466.22;;;18.23;31.44
73171;BME280;61381;50.118;19.962;2023-04-21T14:51:48;98458.56;;;18.04;32.32
73171;BME280;61381;50.118;19.962;2023-04-21T14:56:49;98445.88;;;18.16;32.27
73171;BME280;61381;50.118;19.962;2023-04-21T15:01:52;98443.81;;;18.13;33.38
73171;BME280;61381;50.118;19.962;2023-04-21T15:06:53;98429.97;;;18.64;32.89
73171;BME280;61381;50.118;19.962;2023-04-21T15:11:54;98441.06;;;18.59;32.75
73171;BME280;61381;50.118;19.962;2023-04-21T15:16:56;98444.22;;;18.49;31.33
73171;BME280;61381;50.118;19.962;2023-04-21T15:21:57;98436.81;;;18.12;32.22
73171;BME280;61381;50.118;19.962;2023-04-21T15:26:58;98438.03;;;18.03;32.14
73171;BME280;61381;50.118;19.962;2023-04-21T15:32:01;98434.09;;;18.12;32.89
73171;BME280;61381;50.118;19.962;2023-04-21T15:37:02;98430.34;;;18.05;32.93
73171;BME280;61381;50.118;19.962;2023-04-21T15:42:03;98433.06;;;18.05;32.34
73171;BME280;61381;50.118;19.962;2023-04-21T15:47:06;98427.53;;;17.80;34.00
73171;BME280;61381;50.118;19.962;2023-04-21T15:52:07;98432.91;;;17.68;34.71
73171;BME280;61381;50.118;19.962;2023-04-21T15:57:08;98423.41;;;17.61;34.63
73171;BME280;61381;50.118;19.962;2023-04-21T16:02:10;98419.38;;;17.68;35.17
73171;BME280;61381;50.118;19.962;2023-04-21T16:07:12;98406.69;;;17.59;34.03
73171;BME280;61381;50.118;19.962;2023-04-21T16:12:13;98412.47;;;17.70;34.11
73171;BME280;61381;50.118;19.962;2023-04-21T16:17:15;98406.34;;;17.61;35.79
73171;BME280;61381;50.118;19.962;2023-04-21T16:22:16;98403.53;;;17.57;35.64
73171;BME280;61381;50.118;19.962;2023-04-21T16:27:17;98408.09;;;17.23;35.70
73171;BME280;61381;50.118;19.962;2023-04-21T16:32:19;98405.00;;;17.13;37.50
73171;BME280;61381;50.118;19.962;2023-04-21T16:37:21;98398.16;;;17.15;38.24
73171;BME280;61381;50.118;19.962;2023-04-21T16:42:22;98399.75;;;17.07;37.45
73171;BME280;61381;50.118;19.962;2023-04-21T16:47:24;98396.00;;;17.00;37.31
73171;BME280;61381;50.118;19.962;2023-04-21T16:52:25;98401.22;;;16.75;36.84
73171;BME280;61381;50.118;19.962;2023-04-21T16:57:27;98400.22;;;16.58;37.77
73171;BME280;61381;50.118;19.962;2023-04-21T17:02:29;98387.75;;;16.28;39.17
73171;BME280;61381;50.118;19.962;2023-04-21T17:07:30;98383.75;;;15.95;39.29
73171;BME280;61381;50.118;19.962;2023-04-21T17:12:31;98381.09;;;15.78;41.11
73171;BME280;61381;50.118;19.962;2023-04-21T17:17:38;98375.56;;;15.39;42.80
73171;BME280;61381;50.118;19.962;2023-04-21T17:22:40;98375.72;;;15.08;45.28
73171;BME280;61381;50.118;19.962;2023-04-21T17:27:41;98382.06;;;14.86;47.86
73171;BME280;61381;50.118;19.962;2023-04-21T17:32:44;98373.59;;;14.61;50.78
73171;BME280;61381;50.118;19.962;2023-04-21T17:37:45;98381.41;;;14.31;51.40
73171;BME280;61381;50.118;19.962;2023-04-21T17:42:46;98364.75;;;13.98;53.06
73171;BME280;61381;50.118;19.962;2023-04-21T17:47:48;98369.16;;;13.62;55.24
73171;BME280;61381;50.118;19.962;2023-04-21T17:52:49;98371.31;;;13.51;52.65
73171;BME280;61381;50.118;19.962;2023-04-21T17:57:50;98362.31;;;13.33;58.38
73171;BME280;61381;50.118;19.962;2023-04-21T18:02:53;98366.47;;;12.66;61.84
73171;BME280;61381;50.118;19.962;2023-04-21T18:07:54;98367.59;;;12.24;62.42
73171;BME280;61381;50.118;19.962;2023-04-21T18:12:55;98369.84;;;12.03;66.59
73171;BME280;61381;50.118;19.962;2023-04-21T18:17:57;98370.13;;;11.68;71.41
73171;BME280;61381;50.118;19.962;2023-04-21T18:22:58;98372.31;;;11.33;72.63
73171;BME280;61381;50.118;19.962;2023-04-21T18:27:59;98373.63;;;10.98;72.69
73171;BME280;61381;50.118;19.962;2023-04-21T18:33:02;98366.56;;;10.64;76.50
73171;BME280;61381;50.118;19.962;2023-04-21T18:38:03;98370.28;;;10.44;78.82
73171;BME280;61381;50.118;19.962;2023-04-21T18:43:05;98374.25;;;10.22;79.36
73171;BME280;61381;50.118;19.962;2023-04-21T18:48:07;98377.97;;;10.50;68.09
73171;BME280;61381;50.118;19.962;2023-04-21T18:53:08;98378.25;;;10.49;69.71
73171;BME280;61381;50.118;19.962;2023-04-21T18:58:09;98353.94;;;9.97;81.58
73171;BME280;61381;50.118;19.962;2023-04-21T19:03:11;98377.03;;;9.88;78.66
73171;BME280;61381;50.118;19.962;2023-04-21T19:08:12;98371.63;;;9.63;83.11
73171;BME280;61381;50.118;19.962;2023-04-21T19:13:13;98364.66;;;9.62;74.58
73171;BME280;61381;50.118;19.962;2023-04-21T19:18:16;98383.47;;;9.81;70.22
73171;BME280;61381;50.118;19.962;2023-04-21T19:23:17;98375.59;;;9.66;74.43
73171;BME280;61381;50.118;19.962;2023-04-21T19:28:18;98372.78;;;9.52;77.37
73171;BME280;61381;50.118;19.962;2023-04-21T19:33:20;98371.38;;;9.60;74.19
73171;BME280;61381;50.118;19.962;2023-04-21T19:38:21;98376.03;;;9.78;70.56
73171;BME280;61381;50.118;19.962;2023-04-21T19:43:23;98371.47;;;10.08;65.13
73171;BME280;61381;50.118;19.962;2023-04-21T19:48:25;98381.16;;;10.28;63.24
73171;BME280;61381;50.118;19.962;2023-04-21T19:53:26;98383.00;;;10.33;62.27
73171;BME280;61381;50.118;19.962;2023-04-21T19:58:27;98375.91;;;10.18;65.99
73171;BME280;61381;50.118;19.962;2023-04-21T20:03:30;98366.41;;;9.48;77.25
73171;BME280;61381;50.118;19.962;2023-04-21T20:08:31;98372.91;;;8.92;82.87
73171;BME280;61381;50.118;19.962;2023-04-21T20:13:32;98382.91;;;8.71;88.37
73171;BME280;61381;50.118;19.962;2023-04-21T20:18:34;98378.50;;;8.46;87.85
73171;BME280;61381;50.118;19.962;2023-04-21T20:23:36;98387.59;;;8.19;87.89
73171;BME280;61381;50.118;19.962;2023-04-21T20:28:38;98375.13;;;7.94;91.14
73171;BME280;61381;50.118;19.962;2023-04-21T20:33:40;98375.16;;;7.78;91.24
73171;BME280;61381;50.118;19.962;2023-04-21T20:38:41;98375.97;;;7.58;94.54
73171;BME280;61381;50.118;19.962;2023-04-21T20:43:43;98371.69;;;7.42;97.38
73171;BME280;61381;50.118;19.962;2023-04-21T20:48:45;98377.25;;;7.20;100.00
73171;BME280;61381;50.118;19.962;2023-04-21T20:53:46;98376.44;;;7.09;100.00
73171;BME280;61381;50.118;19.962;2023-04-21T20:58:48;98381.53;;;7.16;100.00
73171;BME280;61381;50.118;19.962;2023-04-21T21:03:53;98377.81;;;7.37;99.03
73171;BME280;61381;50.118;19.962;2023-04-21T21:08:58;98383.16;;;7.32;96.90
73171;BME280;61381;50.118;19.962;2023-04-21T21:13:59;98378.28;;;6.98;100.00
73171;BME280;61381;50.118;19.962;2023-04-21T21:19:01;98376.41;;;6.93;95.88
73171;BME280;61381;50.118;19.962;2023-04-21T21:24:03;98379.38;;;6.97;96.95
73171;BME280;61381;50.118;19.962;2023-04-21T21:29:04;98373.19;;;6.81;100.00
73171;BME280;61381;50.118;19.962;2023-04-21T21:34:06;98372.88;;;6.62;100.00
73171;BME280;61381;50.118;19.962;2023-04-21T21:39:07;98371.47;;;6.39;100.00
73171;BME280;61381;50.118;19.962;2023-04-21T21:44:08;98368.75;;;6.34;100.00
73171;BME280;61381;50.118;19.962;2023-04-21T21:49:11;98372.78;;;6.36;100.00
73171;BME280;61381;50.118;19.962;2023-04-21T21:54:12;98380.94;;;6.19;100.00
73171;BME280;61381;50.118;19.962;2023-04-21T21:59:13;98378.84;;;6.27;100.00
73171;BME280;61381;50.118;19.962;2023-04-21T22:04:16;98381.53;;;6.32;100.00
73171;BME280;61381;50.118;19.962;2023-04-21T22:09:17;98378.53;;;6.18;100.00
73171;BME280;61381;50.118;19.962;2023-04-21T22:14:18;98386.44;;;6.02;100.00
73171;BME280;61381;50.118;19.962;2023-04-21T22:19:20;98386.16;;;5.99;100.00
73171;BME280;61381;50.118;19.962;2023-04-21T22:24:21;98376.44;;;6.25;100.00
73171;BME280;61381;50.118;19.962;2023-04-21T22:29:22;98381.09;;;6.55;100.00
73171;BME280;61381;50.118;19.962;2023-04-21T22:34:24;98392.09;;;6.79;100.00
73171;BME280;61381;50.118;19.962;2023-04-21T22:39:25;98381.59;;;6.47;100.00
73171;BME280;61381;50.118;19.962;2023-04-21T22:44:26;98368.75;;;6.34;100.00
73171;BME280;61381;50.118;19.962;2023-04-21T22:49:29;98377.41;;;6.62;100.00
73171;BME280;61381;50.118;19.962;2023-04-21T22:54:30;98374.91;;;6.39;100.00
73171;BME280;61381;50.118;19.962;2023-04-21T22:59:31;98377.84;;;6.38;100.00
73171;BME280;61381;50.118;19.962;2023-04-21T23:04:33;98376.38;;;6.15;100.00
73171;BME280;61381;50.118;19.962;2023-04-21T23:09:34;98377.56;;;5.92;100.00
73171;BME280;61381;50.118;19.962;2023-04-21T23:14:35;98376.06;;;6.01;100.00
73171;BME280;61381;50.118;19.962;2023-04-21T23:19:38;98377.69;;;6.07;100.00
73171;BME280;61381;50.118;19.962;2023-04-21T23:24:39;98380.41;;;5.85;100.00
73171;BME280;61381;50.118;19.962;2023-04-21T23:29:39;98372.94;;;5.77;100.00
73171;BME280;61381;50.118;19.962;2023-04-21T23:34:42;98371.94;;;5.88;100.00
73171;BME280;61381;50.118;19.962;2023-04-21T23:39:43;98365.22;;;5.75;100.00
73171;BME280;61381;50.118;19.962;2023-04-21T23:44:44;98370.16;;;5.61;100.00
73171;BME280;61381;50.118;19.962;2023-04-21T23:49:46;98359.34;;;5.35;100.00
73171;BME280;61381;50.118;19.962;2023-04-21T23:54:47;98353.63;;;5.16;100.00
73171;BME280;61381;50.118;19.962;2023-04-21T23:59:48;98354.97;;;4.92;100.00
